Latest Weather Observations for Penrith

IDN60901

Issued at 5:35 pm EDT Thursday 23 October 2014 (issued every 10 minutes, with the page automatically refreshed every 10 minutes)

About weather observations | Map of Sydney area stations | Latest observations for Sydney area | Other Formats
Station Details ID: 067113 Name: PENRITH LAKES AWS Lat: -33.72 Lon: 150.68 Height: 24.7 m
Data from the previous 72 hours. | See also: Recent months at Penrith
Date/Time
EDT
Tmp

°C
App
Tmp
°C
Dew
Point
°C
Rel
Hum
%
Delta-T

°C
Wind Press
QNH
hPa
Press
MSL
hPa
Rain
since
9 am
mm
Dir
 
Spd
km/h
Gust
km/h
Spd
kts
Gust
kts
23/05:30pm 20.3 20.9 15.9 76 2.6 W 7 11 4 6 - - 14.0
23/05:00pm 19.8 20.5 17.0 84 1.7 SSW 9 17 5 9 - - 14.0
23/04:30pm 19.7 20.0 16.0 79 2.2 S 9 15 5 8 - - 13.4
23/04:08pm 20.3 15.8 13.7 66 3.8 NNE 30 35 16 19 - - 12.0
23/04:00pm 17.2 9.9 10.3 64 3.7 NNW 39 69 21 37 - - 8.0
23/03:58pm 20.1 14.8 14.2 69 3.4 NNW 35 69 19 37 - - 5.4
23/03:54pm 22.3 21.8 13.9 59 4.9 W 9 22 5 12 - - 2.0
23/03:30pm 27.6 22.8 9.0 31 10.2 NW 24 33 13 18 - - 0.0
23/03:23pm 28.4 22.9 9.2 30 10.6 NNW 28 39 15 21 - - 0.0
23/03:00pm 31.6 30.9 11.4 29 11.8 S 6 20 3 11 - - 0.0
23/02:30pm 32.0 29.9 11.2 28 12.1 SE 13 22 7 12 - - 0.0
23/02:00pm 32.1 30.5 12.8 30 11.5 SE 13 20 7 11 - - 0.0
23/01:30pm 31.6 30.8 12.9 32 11.2 SE 9 15 5 8 - - 0.0
23/01:00pm 30.9 31.1 14.1 36 10.2 E 6 11 3 6 - - 0.0
23/12:30pm 29.2 29.9 14.6 41 8.9 NE 4 7 2 4 - - 0.0
23/12:00pm 28.4 29.9 16.7 49 7.3 E 4 9 2 5 - - 0.0
23/11:30am 26.0 26.9 15.1 51 6.6 NNW 4 9 2 5 - - 0.0
23/11:00am 24.5 25.3 14.9 55 5.7 SSW 4 7 2 4 - - 0.0
23/10:30am 23.2 23.3 13.9 56 5.4 N 6 7 3 4 - - 0.0
23/10:00am 21.6 22.5 14.0 62 4.4 WNW 2 4 1 2 - - 0.0
23/09:30am 20.2 20.7 13.9 67 3.6 NNW 4 6 2 3 - - 0.0
23/09:00am 18.4 18.9 13.9 75 2.6 N 4 7 2 4 - - 0.0
23/08:30am 17.1 17.7 13.2 78 2.2 N 2 6 1 3 - - 0.0
23/08:00am 16.4 17.4 13.1 81 1.8 CALM 0 4 0 2 - - 0.0
23/07:30am 14.7 15.7 13.1 90 0.9 CALM 0 0 0 0 - - 0.0
23/07:00am 13.4 14.3 12.8 96 0.3 CALM 0 0 0 0 - - 0.0
23/06:30am 12.8 13.5 12.2 96 0.3 CALM 0 0 0 0 - - 0.0
23/06:00am 12.9 13.6 12.3 96 0.3 NW 0 0 0 0 - - 0.0
23/05:30am 13.2 14.0 12.6 96 0.3 CALM 0 0 0 0 - - 0.0
23/05:00am 13.2 14.0 12.6 96 0.3 CALM 0 0 0 0 - - 0.0
23/04:30am 13.2 14.0 12.4 95 0.4 CALM 0 0 0 0 - - 0.0
23/04:00am 13.5 14.3 12.7 95 0.4 CALM 0 0 0 0 - - 0.0
23/03:30am 13.1 13.7 12.0 93 0.6 CALM 0 0 0 0 - - 0.0
23/03:00am 13.3 14.0 12.2 93 0.6 CALM 0 0 0 0 - - 0.0
23/02:30am 13.8 14.6 12.7 93 0.6 CALM 0 4 0 2 - - 0.0
23/02:00am 13.9 14.2 12.3 90 0.9 S 2 4 1 2 - - 0.0
23/01:30am 14.3 14.6 12.3 88 1.1 S 2 6 1 3 - - 0.0
23/01:00am 14.7 14.8 12.6 87 1.1 S 4 6 2 3 - - 0.0
23/12:30am 14.7 14.2 12.2 85 1.4 SSW 6 7 3 4 - - 0.0
23/12:00am 15.0 15.0 12.3 84 1.5 SSW 4 6 2 3 - - 0.0
 
Date/Time
EDT
Tmp

°C
App
Tmp
°C
Dew
Point
°C
Rel
Hum
%
Delta-T

°C
Wind Press
QNH
hPa
Press
MSL
hPa
Rain
since
9 am
mm
Dir
 
Spd
km/h
Gust
km/h
Spd
kts
Gust
kts
22/11:30pm 15.4 15.2 12.9 85 1.4 SW 6 7 3 4 - - 0.0
22/11:00pm 16.4 17.4 13.1 81 1.8 CALM 0 0 0 0 - - 0.0
22/10:30pm 16.9 17.7 12.4 75 2.5 CALM 0 0 0 0 - - 0.0
22/10:00pm 17.3 17.7 12.6 74 2.6 NNW 2 4 1 2 - - 0.0
22/09:30pm 18.1 18.1 12.3 69 3.2 E 4 6 2 3 - - 0.0
22/09:00pm 18.4 17.5 12.6 69 3.2 ENE 9 11 5 6 - - 0.0
22/08:30pm 19.1 18.2 12.6 66 3.6 E 9 11 5 6 - - 0.0
22/08:00pm 20.0 19.5 12.7 63 4.1 NE 7 9 4 5 - - 0.0
22/07:30pm 21.1 20.8 12.8 59 4.7 N 6 9 3 5 - - 0.0
22/07:00pm 22.2 20.2 12.7 55 5.4 ENE 15 19 8 10 - - 0.0
22/06:30pm 23.6 21.1 12.3 49 6.4 ENE 17 22 9 12 - - 0.0
22/06:00pm 25.2 23.5 9.9 38 8.4 NE 9 15 5 8 - - 0.0
22/05:30pm 25.4 23.4 10.1 38 8.5 ENE 11 15 6 8 - - 0.0
22/05:00pm 25.2 23.0 9.5 37 8.6 NE 11 20 6 11 - - 0.0
22/04:30pm 25.4 23.4 10.1 38 8.5 NNE 11 20 6 11 - - 0.0
22/04:00pm 25.0 22.5 9.7 38 8.4 NE 13 22 7 12 - - 0.0
22/03:30pm 24.9 23.6 10.0 39 8.2 NE 7 13 4 7 - - 0.0
22/03:00pm 24.9 22.5 10.0 39 8.2 NE 13 24 7 13 - - 0.0
22/02:30pm 24.4 21.2 9.9 40 8.0 NE 17 26 9 14 - - 0.0
22/02:00pm 23.9 21.2 9.1 39 8.0 ENE 13 20 7 11 - - 0.0
22/01:30pm 23.0 19.9 8.7 40 7.6 NNE 15 22 8 12 - - 0.0
22/01:00pm 22.5 19.0 8.6 41 7.4 NNE 17 28 9 15 - - 0.0
22/12:30pm 22.1 20.1 8.6 42 7.1 NE 9 17 5 9 - - 0.0
22/12:00pm 21.4 18.3 8.7 44 6.7 NNE 15 24 8 13 - - 0.0
22/11:30am 20.8 17.7 8.8 46 6.3 NNE 15 24 8 13 - - 0.0
22/11:00am 20.7 17.8 9.6 49 5.9 NNE 15 26 8 14 - - 0.0
22/10:30am 19.4 14.6 8.7 50 5.6 N 24 32 13 17 - - 0.0
22/10:00am 18.9 15.0 8.8 52 5.3 N 19 24 10 13 - - 0.0
22/09:30am 18.6 14.8 9.1 54 5.0 N 19 26 10 14 - - 0.0
22/09:00am 18.0 15.9 8.3 53 5.0 N 9 17 5 9 - - 0.0
22/08:30am 16.7 16.0 8.7 59 4.1 N 2 4 1 2 - - 0.0
22/08:00am 15.2 14.7 10.8 75 2.3 N 4 6 2 3 - - 0.0
22/07:30am 14.5 13.9 10.5 77 2.1 NE 4 4 2 2 - - 0.0
22/07:00am 13.9 14.1 10.5 80 1.8 CALM 0 0 0 0 - - 0.0
22/06:30am 13.2 13.2 9.8 80 1.7 CALM 0 0 0 0 - - 0.0
22/06:00am 13.5 13.7 10.5 82 1.6 CALM 0 2 0 1 - - 0.0
22/05:30am 13.9 13.4 10.9 82 1.6 NNW 4 6 2 3 - - 0.0
22/05:00am 13.7 13.4 11.4 86 1.2 N 4 6 2 3 - - 0.0
22/04:30am 13.7 13.7 11.2 85 1.3 N 2 4 1 2 - - 0.0
22/04:00am 13.5 12.7 11.0 85 1.3 NNE 6 6 3 3 - - 0.0
22/03:30am 13.7 12.9 10.9 83 1.5 N 6 7 3 4 - - 0.0
22/03:00am 14.0 13.5 10.6 80 1.8 N 4 6 2 3 - - 0.0
22/02:30am 14.2 14.0 10.6 79 1.9 NNE 2 4 1 2 - - 0.0
22/02:00am 14.6 14.7 10.2 75 2.3 CALM 0 0 0 0 - - 0.0
22/01:30am 14.6 14.5 10.8 78 2.0 NE 2 6 1 3 - - 0.0
22/01:00am 14.7 15.1 11.3 80 1.8 CALM 0 0 0 0 - - 0.0
22/12:30am 14.8 15.2 11.4 80 1.8 CALM 0 0 0 0 - - 0.0
22/12:00am 15.0 15.4 11.4 79 1.9 CALM 0 0 0 0 - - 0.0
 
Date/Time
EDT
Tmp

°C
App
Tmp
°C
Dew
Point
°C
Rel
Hum
%
Delta-T

°C
Wind Press
QNH
hPa
Press
MSL
hPa
Rain
since
9 am
mm
Dir
 
Spd
km/h
Gust
km/h
Spd
kts
Gust
kts
21/11:30pm 15.3 14.9 11.1 76 2.2 N 4 6 2 3 - - 0.0
21/11:00pm 15.2 14.7 10.6 74 2.4 N 4 6 2 3 - - 0.0
21/10:30pm 15.2 14.7 10.8 75 2.3 N 4 4 2 2 - - 0.0
21/10:00pm 15.2 14.7 10.6 74 2.4 NNE 4 4 2 2 - - 0.0
21/09:30pm 15.4 14.7 10.2 71 2.7 NNE 4 6 2 3 - - 0.0
21/09:00pm 15.5 14.5 10.3 71 2.7 NE 6 7 3 4 - - 0.0
21/08:30pm 15.7 14.4 10.0 69 3.0 NE 7 11 4 6 - - 0.0
21/08:00pm 15.8 14.1 9.9 68 3.1 NE 9 11 5 6 - - 0.0
21/07:30pm 16.0 14.0 10.1 68 3.1 ENE 11 17 6 9 - - 0.0
21/07:00pm 16.4 14.0 10.0 66 3.4 ENE 13 19 7 10 - - 0.0
21/06:30pm 17.0 14.7 8.9 59 4.2 ENE 11 17 6 9 - - 0.0
21/06:00pm 17.4 17.2 9.1 58 4.3 CALM 0 0 0 0 - - 0.0
21/05:30pm 17.5 17.3 9.2 58 4.3 CALM 0 0 0 0 - - 0.0
21/05:00pm 17.4 16.5 9.3 59 4.2 NNW 4 6 2 3 - - 0.0
21/04:30pm 17.5 17.1 9.9 61 4.0 NNW 2 6 1 3 - - 0.0
21/04:00pm 17.3 16.1 9.7 61 4.0 NNW 6 11 3 6 - - 0.0
21/03:30pm 17.3 16.5 9.7 61 4.0 SW 4 6 2 3 - - 0.0
21/03:00pm 17.0 16.3 9.9 63 3.7 NNW 4 7 2 4 - - 0.0
21/02:30pm 16.6 15.9 10.0 65 3.5 N 4 7 2 4 - - 0.0
21/02:00pm 15.9 14.5 10.9 72 2.7 N 9 13 5 7 - - 0.0
21/01:30pm 16.3 15.1 9.7 65 3.4 E 6 7 3 4 - - 0.0
21/01:00pm 15.6 13.6 10.2 70 2.8 SSE 11 17 6 9 - - 0.0
21/12:30pm 16.6 16.4 10.5 67 3.2 N 2 6 1 3 - - 0.0
21/12:00pm 16.6 15.8 9.8 64 3.6 ENE 4 7 2 4 - - 0.0
21/11:30am 16.9 17.0 10.1 64 3.6 CALM 0 0 0 0 - - 0.0
21/11:00am 17.1 16.6 10.9 67 3.3 S 4 7 2 4 - - 0.0
21/10:30am 16.6 15.7 11.5 72 2.8 SW 7 9 4 5 - - 0.0
21/10:00am 16.2 15.4 11.8 75 2.4 SSW 7 11 4 6 - - 0.0
21/09:30am 15.8 15.0 11.8 77 2.2 SSW 7 9 4 5 - - 0.0
21/09:00am 15.3 14.6 11.9 80 1.8 WSW 7 9 4 5 - - 2.4
21/08:30am 14.6 14.1 11.9 84 1.5 WSW 6 9 3 5 - - 2.4
21/08:00am 14.2 13.9 12.6 90 0.9 SSW 6 9 3 5 - - 2.4
21/07:30am 13.8 13.4 12.4 91 0.8 S 6 7 3 4 - - 2.4
21/07:00am 13.6 13.6 12.3 92 0.7 W 4 7 2 4 - - 2.4
21/06:30am 13.4 12.8 12.3 93 0.6 WSW 7 9 4 5 - - 2.4
21/06:00am 13.2 12.6 12.3 94 0.5 WSW 7 9 4 5 - - 2.4
21/05:30am 13.1 12.6 12.5 96 0.3 SSW 7 11 4 6 - - 2.4
21/05:00am 13.2 12.9 12.7 97 0.3 SW 6 9 3 5 - - 2.4
21/04:30am 13.2 12.9 12.6 96 0.3 S 6 9 3 5 - - 2.4
21/04:00am 13.3 12.1 12.8 97 0.3 SSE 11 15 6 8 - - 2.0
21/03:30am 13.5 13.3 13.0 97 0.3 SSW 6 7 3 4 - - 1.4
21/03:00am 13.4 13.2 12.9 97 0.3 SSW 6 6 3 3 - - 1.4
21/02:30am 13.3 13.0 12.8 97 0.3 SW 6 7 3 4 - - 1.4
21/02:00am 13.1 13.1 12.5 96 0.3 SSW 4 6 2 3 - - 1.2
21/01:30am 13.3 12.8 12.2 93 0.6 S 6 7 3 4 - - 0.6
21/01:00am 13.3 13.6 12.2 93 0.6 WNW 2 4 1 2 - - 0.4
21/12:30am 13.1 12.6 12.0 93 0.6 NW 6 6 3 3 - - 0.4
21/12:00am 13.5 13.3 11.9 90 0.9 W 4 6 2 3 - - 0.0
 
Date/Time
EDT
Tmp

°C
App
Tmp
°C
Dew
Point
°C
Rel
Hum
%
Delta-T

°C
Wind Press
QNH
hPa
Press
MSL
hPa
Rain
since
9 am
mm
Dir
 
Spd
km/h
Gust
km/h
Spd
kts
Gust
kts
20/11:30pm 14.0 13.2 11.2 83 1.5 N 6 9 3 5 - - 0.0
20/11:00pm 14.1 13.2 11.4 84 1.4 NW 7 9 4 5 - - 0.0
20/10:30pm 14.9 13.7 9.7 71 2.7 E 6 11 3 6 - - 0.0
20/10:00pm 15.5 13.3 9.4 67 3.2 SE 11 20 6 11 - - 0.0
20/09:30pm 15.8 14.6 9.7 67 3.2 S 6 9 3 5 - - 0.0
20/09:00pm 15.6 14.3 9.9 69 3.0 WSW 7 9 4 5 - - 0.0
20/08:30pm 15.4 14.4 10.4 72 2.6 WSW 6 7 3 4 - - 0.0
20/08:00pm 15.4 14.2 10.4 72 2.6 S 7 13 4 7 - - 0.0
20/07:30pm 15.7 12.7 10.7 72 2.7 SSE 17 26 9 14 - - 0.0
20/07:00pm 16.5 14.4 9.7 64 3.6 SSE 11 17 6 9 - - 0.0
20/06:30pm 16.6 13.4 10.0 65 3.5 SSE 17 24 9 13 - - 0.0
20/06:00pm 16.8 14.4 10.0 64 3.6 S 13 22 7 12 - - 0.0

Latest Capital City Observations: Canberra | Sydney | Melbourne | Brisbane | Adelaide | Perth | Hobart | Darwin

Other Formats:

Comma delimited format used in spreadsheet applications
http://www.bom.gov.au/fwo/IDN60901/IDN60901.94763.axf

JavaScript Object Notation format (JSON) in row-major order
http://www.bom.gov.au/fwo/IDN60901/IDN60901.94763.json